createdAt,value
2022-08-03T00:01:49.512Z,100362.66
2022-08-03T00:04:16.592Z,100360.31
2022-08-03T00:06:43.325Z,100364.81
2022-08-03T00:09:10.532Z,100368.78
2022-08-03T00:11:38.449Z,100355.06
2022-08-03T00:14:06.322Z,100356.38
2022-08-03T00:16:33.080Z,100364.81
2022-08-03T00:19:00.753Z,100363.22
2022-08-03T00:21:28.201Z,100362.44
2022-08-03T00:23:55.804Z,100370.06
2022-08-03T00:26:22.675Z,100368.75
2022-08-03T00:28:50.117Z,100367.44
2022-08-03T00:31:16.876Z,100366.37
2022-08-03T00:34:03.552Z,100368.22
2022-08-03T00:36:30.861Z,100369.81
2022-08-03T00:38:57.651Z,100362.69
2022-08-03T00:41:24.345Z,100372.97
2022-08-03T00:43:50.991Z,100369.53
2022-08-03T00:46:21.388Z,100385.38
2022-08-03T00:48:52.427Z,100386.16
2022-08-03T00:51:20.815Z,100382.19
2022-08-03T00:53:48.008Z,100384.53
2022-08-03T00:56:16.127Z,100383.19
2022-08-03T00:58:44.522Z,100381.56
2022-08-03T01:01:12.412Z,100386.06
2022-08-03T01:03:39.384Z,100388.97
2022-08-03T01:06:19.434Z,100390.31
2022-08-03T01:09:02.924Z,100391.03
2022-08-03T01:12:01.092Z,100395.28
2022-08-03T01:14:37.634Z,100398.69
2022-08-03T01:17:19.630Z,100396.31
2022-08-03T01:19:46.490Z,100398.44
2022-08-03T01:22:40.915Z,100404.25
2022-08-03T01:25:27.170Z,100405.63
2022-08-03T01:28:09.000Z,100408.03
2022-08-03T01:30:40.976Z,100406.41
2022-08-03T01:33:15.728Z,100408.50
2022-08-03T01:35:47.047Z,100411.69
2022-08-03T01:38:28.824Z,100413.69
2022-08-03T01:40:57.063Z,100406.28
2022-08-03T01:44:27.548Z,100410.37
2022-08-03T01:46:21.953Z,100406.75
2022-08-03T01:48:49.671Z,100410.31
2022-08-03T01:51:20.069Z,100411.69
2022-08-03T01:53:49.330Z,100408.69
2022-08-03T01:56:30.182Z,100404.78
2022-08-03T01:59:00.642Z,100402.41
2022-08-03T02:02:25.298Z,100408.09
2022-08-03T02:04:18.397Z,100402.59
2022-08-03T02:07:01.851Z,100394.06
2022-08-03T02:09:31.841Z,100396.59
2022-08-03T02:12:00.785Z,100397.09
2022-08-03T02:14:28.355Z,100401.06
2022-08-03T02:16:56.716Z,100387.56
2022-08-03T02:19:25.435Z,100392.28
2022-08-03T02:21:56.637Z,100391.53
2022-08-03T02:24:28.989Z,100398.72
2022-08-03T02:26:56.763Z,100396.94
2022-08-03T02:29:39.800Z,100395.31
2022-08-03T02:32:12.711Z,100396.44
2022-08-03T02:34:42.415Z,100391.56
2022-08-03T02:37:11.617Z,100393.72
2022-08-03T02:39:41.872Z,100393.44
2022-08-03T02:42:12.033Z,100399.69
2022-08-03T02:44:43.577Z,100399.72
2022-08-03T02:47:11.919Z,100402.31
2022-08-03T02:49:50.264Z,100394.41
2022-08-03T02:52:21.742Z,100404.84
2022-08-03T02:54:51.255Z,100403.06
2022-08-03T02:57:20.139Z,100399.16
2022-08-03T02:59:47.666Z,100404.41
2022-08-03T03:02:17.029Z,100401.69
2022-08-03T03:05:52.905Z,100406.16
2022-08-03T03:07:47.811Z,100402.44
2022-08-03T03:10:21.540Z,100404.94
2022-08-03T03:12:51.143Z,100400.09
2022-08-03T03:15:18.946Z,100404.94
2022-08-03T03:17:46.188Z,100405.50
2022-08-03T03:20:14.834Z,100399.44
2022-08-03T03:22:45.217Z,100403.66
2022-08-03T03:25:12.179Z,100401.06
2022-08-03T03:27:39.956Z,100403.66
2022-08-03T03:30:07.287Z,100399.28
2022-08-03T03:32:34.144Z,100401.53
2022-08-03T03:35:01.818Z,100409.97
2022-08-03T03:37:28.471Z,100409.97
2022-08-03T03:39:55.261Z,100404.53
2022-08-03T03:42:22.391Z,100406.09
2022-08-03T03:44:49.043Z,100412.16
2022-08-03T03:47:15.825Z,100408.47
2022-08-03T03:49:44.134Z,100401.94
2022-08-03T03:52:11.061Z,100411.47
2022-08-03T03:54:44.996Z,100414.13
2022-08-03T03:57:13.178Z,100421.53
2022-08-03T03:59:42.565Z,100412.31
2022-08-03T04:02:10.442Z,100414.84
2022-08-03T04:04:56.923Z,100420.41
2022-08-03T04:07:44.333Z,100426.75
2022-08-03T04:10:34.378Z,100415.66
2022-08-03T04:13:02.322Z,100431.56
2022-08-03T04:15:31.558Z,100429.25
2022-08-03T04:17:59.624Z,100426.41
2022-08-03T04:20:31.986Z,100441.59
2022-08-03T04:23:00.733Z,100434.88
2022-08-03T04:25:31.240Z,100435.31
2022-08-03T04:28:30.028Z,100433.22
2022-08-03T04:30:50.900Z,100429.22
2022-08-03T04:33:19.467Z,100437.53
2022-08-03T04:36:01.359Z,100440.81
2022-08-03T04:38:32.883Z,100443.06
2022-08-03T04:41:00.647Z,100438.38
2022-08-03T04:43:28.747Z,100444.94
2022-08-03T04:45:56.937Z,100439.09
2022-08-03T04:48:24.276Z,100444.78
2022-08-03T04:50:51.310Z,100444.75
2022-08-03T04:53:18.232Z,100447.00
2022-08-03T04:55:46.833Z,100445.75
2022-08-03T04:58:15.462Z,100449.88
2022-08-03T05:00:42.984Z,100460.84
2022-08-03T05:03:23.505Z,100455.81
2022-08-03T05:06:09.998Z,100461.41
2022-08-03T05:08:46.004Z,100463.44
2022-08-03T05:11:15.622Z,100470.38
2022-08-03T05:13:42.528Z,100470.00
2022-08-03T05:16:09.170Z,100464.00
2022-08-03T05:18:36.077Z,100466.22
2022-08-03T05:21:02.804Z,100469.56
2022-08-03T05:23:29.519Z,100475.69
2022-08-03T05:25:56.271Z,100478.69
2022-08-03T05:28:23.455Z,100477.44
2022-08-03T05:30:50.121Z,100476.63
2022-08-03T05:33:16.716Z,100487.09
2022-08-03T05:36:01.319Z,100486.41
2022-08-03T05:38:34.156Z,100494.34
2022-08-03T05:41:23.341Z,100490.66
2022-08-03T05:43:49.694Z,100492.91
2022-08-03T05:46:16.361Z,100495.00
2022-08-03T05:48:43.533Z,100500.75
2022-08-03T05:51:11.935Z,100503.16
2022-08-03T05:53:39.995Z,100503.25
2022-08-03T05:56:13.601Z,100496.00
2022-08-03T05:58:42.491Z,100498.72
2022-08-03T06:01:09.166Z,100501.59
2022-08-03T06:03:35.789Z,100517.25
2022-08-03T06:06:02.439Z,100509.53
2022-08-03T06:08:29.313Z,100513.00
2022-08-03T06:10:55.918Z,100515.00
2022-08-03T06:13:23.795Z,100515.44
2022-08-03T06:15:50.431Z,100520.00
2022-08-03T06:18:17.109Z,100524.09
2022-08-03T06:20:43.716Z,100519.75
2022-08-03T06:23:15.990Z,100519.25
2022-08-03T06:25:44.571Z,100518.81
2022-08-03T06:28:35.393Z,100524.25
2022-08-03T06:30:59.135Z,100520.38
2022-08-03T06:33:26.565Z,100527.03
2022-08-03T06:36:13.162Z,100525.19
2022-08-03T06:38:39.782Z,100521.94
2022-08-03T06:41:06.368Z,100523.31
2022-08-03T06:43:37.476Z,100523.88
2022-08-03T06:46:05.624Z,100527.03
2022-08-03T06:48:32.469Z,100527.19
2022-08-03T06:50:59.307Z,100528.72
2022-08-03T06:53:26.253Z,100525.81
2022-08-03T06:55:54.944Z,100524.75
2022-08-03T06:58:22.515Z,100527.06
2022-08-03T07:00:49.423Z,100532.81
2022-08-03T07:03:16.505Z,100532.03
2022-08-03T07:05:43.875Z,100536.47
2022-08-03T07:08:10.592Z,100532.44
2022-08-03T07:10:37.338Z,100539.88
2022-08-03T07:13:04.687Z,100531.97
2022-08-03T07:15:53.921Z,100537.97
2022-08-03T07:18:18.077Z,100529.94
2022-08-03T07:20:55.779Z,100531.09
2022-08-03T07:23:22.362Z,100532.53
2022-08-03T07:25:49.048Z,100533.88
2022-08-03T07:28:15.687Z,100530.44
2022-08-03T07:30:42.308Z,100529.34
2022-08-03T07:33:08.903Z,100532.63
2022-08-03T07:35:35.521Z,100533.25
2022-08-03T07:38:02.151Z,100526.66
2022-08-03T07:40:31.674Z,100529.22
2022-08-03T07:42:58.888Z,100520.84
2022-08-03T07:45:26.985Z,100530.12
2022-08-03T07:47:54.553Z,100531.19
2022-08-03T07:50:22.648Z,100531.63
2022-08-03T07:52:50.391Z,100526.41
2022-08-03T07:55:19.670Z,100525.44
2022-08-03T07:57:46.979Z,100520.31
2022-08-03T08:00:17.422Z,100521.44
2022-08-03T08:02:45.206Z,100524.59
2022-08-03T08:05:13.095Z,100527.44
2022-08-03T08:07:40.341Z,100526.62
2022-08-03T08:10:08.295Z,100520.06
2022-08-03T08:12:35.080Z,100522.03
2022-08-03T08:15:02.417Z,100525.84
2022-08-03T08:17:29.121Z,100523.38
2022-08-03T08:19:55.753Z,100526.44
2022-08-03T08:22:29.713Z,100522.25
2022-08-03T08:24:56.943Z,100529.75
2022-08-03T08:27:23.725Z,100521.81
2022-08-03T08:29:55.168Z,100521.09
2022-08-03T08:32:23.291Z,100519.25
2022-08-03T08:34:50.024Z,100524.75
2022-08-03T08:37:16.647Z,100517.97
2022-08-03T08:39:43.252Z,100521.34
2022-08-03T08:42:10.417Z,100517.28
2022-08-03T08:44:38.514Z,100516.47
2022-08-03T08:47:08.267Z,100518.00
2022-08-03T08:49:37.549Z,100518.50
2022-08-03T08:52:24.900Z,100516.34
2022-08-03T08:55:05.947Z,100520.47
2022-08-03T08:57:44.896Z,100509.38
2022-08-03T09:00:14.581Z,100511.41
2022-08-03T09:02:45.933Z,100512.91
2022-08-03T09:05:15.336Z,100513.06
2022-08-03T09:07:43.240Z,100506.69
2022-08-03T09:10:13.656Z,100501.37
2022-08-03T09:12:45.484Z,100501.97
2022-08-03T09:15:24.988Z,100497.47
2022-08-03T09:17:54.152Z,100503.88
2022-08-03T09:20:23.455Z,100499.78
2022-08-03T09:22:54.753Z,100502.94
2022-08-03T09:25:37.349Z,100504.72
2022-08-03T09:28:10.399Z,100501.28
2022-08-03T09:30:39.986Z,100492.25
2022-08-03T09:33:08.861Z,100499.81
2022-08-03T09:36:01.886Z,100494.69
2022-08-03T09:38:28.556Z,100497.44
2022-08-03T09:40:59.993Z,100488.66
2022-08-03T09:43:28.334Z,100482.75
2022-08-03T09:46:05.525Z,100486.97
2022-08-03T09:48:35.090Z,100486.81
2022-08-03T09:51:14.419Z,100491.28
2022-08-03T09:53:58.628Z,100484.37
2022-08-03T09:56:42.018Z,100473.72
2022-08-03T09:59:09.868Z,100474.41
2022-08-03T10:01:37.506Z,100467.53
2022-08-03T10:04:05.286Z,100470.19
2022-08-03T10:06:32.570Z,100460.91
2022-08-03T10:09:15.378Z,100466.41
2022-08-03T10:11:44.102Z,100462.25
2022-08-03T10:14:19.188Z,100452.81
2022-08-03T10:16:47.631Z,100461.13
2022-08-03T10:19:15.625Z,100456.12
2022-08-03T10:21:49.485Z,100458.25
2022-08-03T10:24:17.704Z,100456.41
2022-08-03T10:26:49.867Z,100453.75
2022-08-03T10:29:28.203Z,100455.50
2022-08-03T10:31:58.827Z,100452.28
2022-08-03T10:34:29.146Z,100451.47
2022-08-03T10:36:58.882Z,100442.38
2022-08-03T10:39:29.138Z,100443.56
2022-08-03T10:41:59.793Z,100438.31
2022-08-03T10:44:37.656Z,100428.59
2022-08-03T10:47:05.038Z,100430.75
2022-08-03T10:49:34.516Z,100427.47
2022-08-03T10:52:10.358Z,100424.81
2022-08-03T10:55:00.818Z,100420.66
2022-08-03T10:57:50.077Z,100421.72
2022-08-03T11:00:24.006Z,100419.94
2022-08-03T11:03:11.434Z,100420.50
2022-08-03T11:05:46.729Z,100414.84
2022-08-03T11:08:19.567Z,100400.31
2022-08-03T11:10:47.119Z,100411.66
2022-08-03T11:13:22.167Z,100396.66
2022-08-03T11:15:52.322Z,100397.88
2022-08-03T11:18:19.595Z,100398.06
2022-08-03T11:20:55.011Z,100400.56
2022-08-03T11:24:04.913Z,100392.53
2022-08-03T11:26:29.880Z,100393.94
2022-08-03T11:29:31.634Z,100397.53
2022-08-03T11:31:58.532Z,100395.50
2022-08-03T11:34:25.572Z,100392.22
2022-08-03T11:37:27.231Z,100392.13
2022-08-03T11:39:56.899Z,100380.38
2022-08-03T11:42:23.872Z,100381.16
2022-08-03T11:44:51.698Z,100377.16
2022-08-03T11:47:20.470Z,100384.81
2022-08-03T11:49:48.093Z,100380.53
2022-08-03T11:52:16.027Z,100372.09
2022-08-03T11:54:43.017Z,100375.13
2022-08-03T11:57:10.125Z,100367.81
2022-08-03T11:59:38.822Z,100366.78
2022-08-03T12:02:14.678Z,100369.41
2022-08-03T12:04:54.560Z,100365.09
2022-08-03T12:08:02.729Z,100372.53
2022-08-03T12:10:15.045Z,100367.81
2022-08-03T12:12:46.390Z,100361.44
2022-08-03T12:15:13.639Z,100365.87
2022-08-03T12:17:41.697Z,100371.44
2022-08-03T12:20:10.166Z,100363.78
2022-08-03T12:22:40.696Z,100367.09
2022-08-03T12:25:09.085Z,100372.34
2022-08-03T12:27:36.273Z,100356.72
2022-08-03T12:30:04.219Z,100358.22
2022-08-03T12:32:31.459Z,100354.69
2022-08-03T12:35:01.281Z,100358.63
2022-08-03T12:37:29.077Z,100351.06
2022-08-03T12:40:02.405Z,100343.00
2022-08-03T12:42:36.726Z,100345.66
2022-08-03T12:45:24.439Z,100347.22
2022-08-03T12:47:56.167Z,100343.13
2022-08-03T12:50:34.908Z,100338.25
2022-08-03T12:53:09.068Z,100330.78
2022-08-03T12:55:56.719Z,100336.28
2022-08-03T12:58:35.384Z,100337.25
2022-08-03T13:01:09.572Z,100337.25
2022-08-03T13:03:50.008Z,100320.25
2022-08-03T13:06:24.861Z,100331.78
2022-08-03T13:09:05.939Z,100320.84
2022-08-03T13:11:55.467Z,100319.28
2022-08-03T13:14:19.961Z,100319.72
2022-08-03T13:16:48.122Z,100320.72
2022-08-03T13:19:15.852Z,100309.00
2022-08-03T13:22:02.196Z,100308.72
2022-08-03T13:24:31.378Z,100303.12
2022-08-03T13:26:58.955Z,100301.78
2022-08-03T13:29:25.542Z,100298.81
2022-08-03T13:31:52.193Z,100291.09
2022-08-03T13:34:23.018Z,100298.44
2022-08-03T13:37:08.323Z,100296.53
2022-08-03T13:39:57.763Z,100298.56
2022-08-03T13:42:22.988Z,100288.44
2022-08-03T13:44:49.798Z,100291.94
2022-08-03T13:47:16.531Z,100287.34
2022-08-03T13:49:54.142Z,100294.72
2022-08-03T13:52:35.850Z,100288.22
2022-08-03T13:55:07.254Z,100283.59
2022-08-03T13:58:05.847Z,100276.88
2022-08-03T14:00:28.945Z,100277.25
2022-08-03T14:03:09.247Z,100282.91
2022-08-03T14:05:40.229Z,100276.50
2022-08-03T14:08:07.756Z,100268.53
2022-08-03T14:10:39.644Z,100267.41
2022-08-03T14:13:07.026Z,100272.88
2022-08-03T14:15:38.021Z,100269.94
2022-08-03T14:18:06.541Z,100271.06
2022-08-03T14:20:38.984Z,100260.09
2022-08-03T14:23:17.493Z,100265.19
2022-08-03T14:25:52.370Z,100260.84
2022-08-03T14:28:24.117Z,100258.75
2022-08-03T14:30:56.051Z,100259.28
2022-08-03T14:33:23.448Z,100250.81
2022-08-03T14:35:51.608Z,100251.91
2022-08-03T14:38:18.421Z,100250.44
2022-08-03T14:40:45.257Z,100251.22
2022-08-03T14:43:12.574Z,100252.25
2022-08-03T14:45:40.437Z,100248.16
2022-08-03T14:50:33.248Z,100252.53
2022-08-03T14:50:55.202Z,100245.25
2022-08-03T14:53:22.291Z,100239.63
2022-08-03T14:55:51.260Z,100233.72
2022-08-03T14:58:22.696Z,100235.12
2022-08-03T15:00:51.156Z,100234.78
2022-08-03T15:03:24.749Z,100234.19
2022-08-03T15:05:56.408Z,100230.44
2022-08-03T15:08:24.361Z,100231.59
2022-08-03T15:10:51.541Z,100236.84
2022-08-03T15:13:18.604Z,100237.19
2022-08-03T15:15:45.866Z,100231.72
2022-08-03T15:18:12.546Z,100231.94
2022-08-03T15:20:44.894Z,100229.81
2022-08-03T15:23:17.103Z,100223.72
2022-08-03T15:26:03.150Z,100221.31
2022-08-03T15:28:32.313Z,100224.53
2022-08-03T15:30:59.050Z,100228.34
2022-08-03T15:33:25.719Z,100221.47
2022-08-03T15:35:53.117Z,100220.31
2022-08-03T15:38:22.937Z,100218.47
2022-08-03T15:40:56.039Z,100217.66
2022-08-03T15:43:23.458Z,100220.31
2022-08-03T15:46:12.722Z,100217.72
2022-08-03T15:48:37.126Z,100213.59
2022-08-03T15:51:04.741Z,100207.00
2022-08-03T15:53:31.514Z,100208.78
2022-08-03T15:55:58.208Z,100205.09
2022-08-03T15:59:03.863Z,100211.84
2022-08-03T16:01:19.778Z,100211.62
2022-08-03T16:03:46.780Z,100209.66
2022-08-03T16:06:13.937Z,100212.59
2022-08-03T16:08:40.579Z,100215.72
2022-08-03T16:11:07.565Z,100212.91
2022-08-03T16:14:12.468Z,100206.41
2022-08-03T16:16:20.900Z,100202.13
2022-08-03T16:18:47.522Z,100202.13
2022-08-03T16:21:17.787Z,100204.59
2022-08-03T16:23:47.086Z,100200.06
2022-08-03T16:26:14.095Z,100201.56
2022-08-03T16:28:40.901Z,100208.34
2022-08-03T16:31:09.117Z,100198.66
2022-08-03T16:33:36.113Z,100200.22
2022-08-03T16:36:03.080Z,100203.06
2022-08-03T16:38:30.568Z,100202.25
2022-08-03T16:40:57.292Z,100202.75
2022-08-03T16:43:24.703Z,100200.56
2022-08-03T16:45:52.171Z,100195.47
2022-08-03T16:48:19.039Z,100192.47
2022-08-03T16:50:46.184Z,100202.41
2022-08-03T16:53:16.438Z,100202.81
2022-08-03T16:55:53.837Z,100204.28
2022-08-03T16:58:41.245Z,100201.53
2022-08-03T17:01:21.719Z,100208.38
2022-08-03T17:04:01.870Z,100206.47
2022-08-03T17:06:34.069Z,100207.78
2022-08-03T17:09:02.202Z,100203.16
2022-08-03T17:11:32.976Z,100209.56
2022-08-03T17:14:00.580Z,100213.56
2022-08-03T17:16:27.542Z,100212.78
2022-08-03T17:19:03.967Z,100219.25
2022-08-03T17:21:33.026Z,100214.78
2022-08-03T17:24:12.334Z,100221.06
2022-08-03T17:26:44.868Z,100217.41
2022-08-03T17:29:13.466Z,100218.88
2022-08-03T17:31:48.891Z,100222.38
2022-08-03T17:34:17.665Z,100231.56
2022-08-03T17:39:57.020Z,100226.94
2022-08-03T17:42:29.518Z,100223.34
2022-08-03T17:45:02.306Z,100226.56
2022-08-03T17:47:41.769Z,100229.25
2022-08-03T17:50:24.676Z,100223.06
2022-08-03T17:53:07.376Z,100233.03
2022-08-03T17:55:57.534Z,100228.28
2022-08-03T17:58:42.278Z,100231.25
2022-08-03T18:02:00.203Z,100231.53
2022-08-03T18:04:29.615Z,100235.91
2022-08-03T18:06:58.668Z,100237.25
2022-08-03T18:10:04.992Z,100236.06
2022-08-03T18:12:27.095Z,100245.28
2022-08-03T18:15:01.202Z,100243.84
2022-08-03T18:18:00.920Z,100253.78
2022-08-03T18:20:32.713Z,100253.81
2022-08-03T18:23:04.660Z,100255.41
2022-08-03T18:25:42.652Z,100256.81
2022-08-03T18:28:15.356Z,100259.84
2022-08-03T18:30:54.574Z,100261.25
2022-08-03T18:34:32.447Z,100263.91
2022-08-03T18:36:22.095Z,100265.19
2022-08-03T18:38:58.537Z,100263.94
2022-08-03T18:41:32.217Z,100271.78
2022-08-03T18:44:06.626Z,100279.62
2022-08-03T18:47:16.140Z,100274.94
2022-08-03T18:50:19.352Z,100277.16
2022-08-03T18:53:15.729Z,100277.16
2022-08-03T18:56:23.868Z,100278.84
2022-08-03T18:58:56.562Z,100276.19
2022-08-03T19:01:58.091Z,100282.75
2022-08-03T19:04:41.066Z,100287.97
2022-08-03T19:07:11.208Z,100289.91
2022-08-03T19:09:48.368Z,100291.09
2022-08-03T19:12:42.441Z,100293.66
2022-08-03T19:15:13.518Z,100294.78
2022-08-03T19:17:50.324Z,100296.31
2022-08-03T19:20:28.755Z,100293.09
2022-08-03T19:22:57.129Z,100295.41
2022-08-03T19:25:35.212Z,100301.00
2022-08-03T19:28:06.124Z,100309.97
2022-08-03T19:30:38.998Z,100304.87
2022-08-03T19:33:15.054Z,100303.59
2022-08-03T19:35:52.067Z,100302.75
2022-08-03T19:38:28.442Z,100309.09
2022-08-03T19:40:59.815Z,100299.53
2022-08-03T19:43:33.365Z,100307.34
2022-08-03T19:46:15.685Z,100305.97
2022-08-03T19:48:51.975Z,100297.00
2022-08-03T19:51:26.483Z,100304.41
2022-08-03T19:54:12.610Z,100301.63
2022-08-03T19:56:47.001Z,100312.91
2022-08-03T19:59:15.691Z,100313.59
2022-08-03T20:01:50.759Z,100314.69
2022-08-03T20:04:17.989Z,100313.00
2022-08-03T20:06:49.682Z,100309.94
2022-08-03T20:09:18.063Z,100320.81
2022-08-03T20:11:45.209Z,100319.88
2022-08-03T20:14:13.301Z,100319.78
2022-08-03T20:16:48.672Z,100313.03
2022-08-03T20:19:16.650Z,100319.44
2022-08-03T20:21:49.180Z,100317.12
2022-08-03T20:24:32.873Z,100319.00
2022-08-03T20:27:05.214Z,100323.38
2022-08-03T20:30:05.274Z,100311.69
2022-08-03T20:32:27.777Z,100321.22
2022-08-03T20:34:54.508Z,100318.37
2022-08-03T20:37:22.191Z,100315.69
2022-08-03T20:39:49.742Z,100324.22
2022-08-03T20:42:21.566Z,100315.56
2022-08-03T20:45:04.762Z,100328.47
2022-08-03T20:47:36.906Z,100335.06
2022-08-03T20:50:17.185Z,100332.47
2022-08-03T20:52:49.817Z,100326.72
2022-08-03T20:55:18.854Z,100328.53
2022-08-03T20:57:49.113Z,100326.47
2022-08-03T21:00:21.889Z,100326.97
2022-08-03T21:02:49.028Z,100321.66
2022-08-03T21:05:15.647Z,100325.37
2022-08-03T21:08:05.693Z,100325.16
2022-08-03T21:10:37.809Z,100326.75
2022-08-03T21:13:18.240Z,100326.47
2022-08-03T21:16:06.324Z,100324.38
2022-08-03T21:18:45.292Z,100328.69
2022-08-03T21:21:14.891Z,100331.56
2022-08-03T21:23:49.018Z,100331.41
2022-08-03T21:26:18.451Z,100343.22
2022-08-03T21:28:49.476Z,100332.13
2022-08-03T21:31:25.449Z,100336.66
2022-08-03T21:33:58.131Z,100337.91
2022-08-03T21:36:27.752Z,100341.31
2022-08-03T21:38:57.289Z,100342.22
2022-08-03T21:41:32.066Z,100340.25
2022-08-03T21:43:59.540Z,100345.53
2022-08-03T21:46:27.637Z,100343.81
2022-08-03T21:50:04.248Z,100343.13
2022-08-03T21:51:48.831Z,100349.19
2022-08-03T21:54:15.550Z,100349.28
2022-08-03T21:56:43.299Z,100344.06
2022-08-03T21:59:16.870Z,100348.94
2022-08-03T22:01:46.665Z,100353.16
2022-08-03T22:04:50.739Z,100357.47
2022-08-03T22:07:08.010Z,100360.13
2022-08-03T22:09:36.536Z,100363.09
2022-08-03T22:12:04.006Z,100363.59
2022-08-03T22:14:32.999Z,100365.31
2022-08-03T22:17:00.692Z,100363.78
2022-08-03T22:19:30.166Z,100367.19
2022-08-03T22:21:58.138Z,100361.12
2022-08-03T22:24:29.498Z,100358.84
2022-08-03T22:27:15.038Z,100366.34
2022-08-03T22:29:42.924Z,100367.13
2022-08-03T22:32:09.683Z,100368.22
2022-08-03T22:34:37.530Z,100371.91
2022-08-03T22:37:05.101Z,100375.09
2022-08-03T22:39:32.350Z,100369.59
2022-08-03T22:41:59.981Z,100367.22
2022-08-03T22:44:27.610Z,100374.59
2022-08-03T22:46:54.522Z,100367.25
2022-08-03T22:49:22.791Z,100371.75
2022-08-03T22:51:51.741Z,100377.34
2022-08-03T22:54:19.131Z,100377.38
2022-08-03T22:56:50.282Z,100379.22
2022-08-03T22:59:40.082Z,100388.19
2022-08-03T23:02:20.154Z,100380.28
2022-08-03T23:04:55.069Z,100378.19
2022-08-03T23:07:38.348Z,100385.31
2022-08-03T23:10:09.015Z,100387.41
2022-08-03T23:12:37.631Z,100390.31
2022-08-03T23:15:10.692Z,100382.94
2022-08-03T23:17:57.851Z,100390.09
2022-08-03T23:20:27.028Z,100383.50
2022-08-03T23:22:57.650Z,100393.03
2022-08-03T23:25:25.238Z,100391.44
2022-08-03T23:28:04.971Z,100393.81
2022-08-03T23:30:34.826Z,100398.31
2022-08-03T23:33:02.987Z,100395.16
2022-08-03T23:36:17.370Z,100394.66
2022-08-03T23:38:37.231Z,100391.22
2022-08-03T23:41:05.103Z,100392.28
2022-08-03T23:43:51.462Z,100395.44
2022-08-03T23:46:21.233Z,100400.44
2022-08-03T23:48:47.905Z,100398.09
2022-08-03T23:51:23.454Z,100399.41
2022-08-03T23:54:19.191Z,100396.50
2022-08-03T23:57:33.086Z,100390.19
